createdAt,value
2023-04-30T00:04:47.577Z,17.20
2023-04-30T00:09:51.222Z,17.03
2023-04-30T00:14:53.003Z,16.97
2023-04-30T00:19:54.996Z,18.97
2023-04-30T00:24:56.854Z,18.90
2023-04-30T00:29:58.998Z,17.23
2023-04-30T00:35:00.745Z,18.53
2023-04-30T00:40:02.641Z,17.80
2023-04-30T00:45:04.804Z,17.87
2023-04-30T00:50:07.161Z,17.07
2023-04-30T00:55:10.597Z,16.37
2023-04-30T01:00:13.944Z,20.07
2023-04-30T01:05:15.762Z,19.17
2023-04-30T01:10:18.388Z,17.27
2023-04-30T01:15:35.579Z,16.67
2023-04-30T01:20:44.395Z,17.27
2023-04-30T01:26:01.582Z,19.93
2023-04-30T01:31:03.307Z,18.13
2023-04-30T01:36:32.987Z,18.43
2023-04-30T01:41:58.002Z,19.73
2023-04-30T01:47:12.174Z,20.23
2023-04-30T01:52:22.945Z,19.60
2023-04-30T01:57:38.863Z,18.23
2023-04-30T02:02:40.872Z,18.30
2023-04-30T02:07:46.342Z,19.33
2023-04-30T02:12:48.268Z,18.50
2023-04-30T02:17:50.067Z,19.93
2023-04-30T02:22:51.903Z,17.30
2023-04-30T02:27:53.606Z,18.80
2023-04-30T02:32:55.363Z,16.80
2023-04-30T02:37:57.340Z,16.30
2023-04-30T02:43:01.273Z,19.03
2023-04-30T02:48:03.191Z,17.93
2023-04-30T02:53:05.082Z,19.53
2023-04-30T02:58:06.848Z,18.70
2023-04-30T03:03:08.613Z,18.83
2023-04-30T03:08:10.421Z,17.73
2023-04-30T03:13:12.175Z,19.50
2023-04-30T03:18:14.063Z,16.60
2023-04-30T03:23:15.780Z,16.03
2023-04-30T03:28:17.681Z,18.53
2023-04-30T03:33:19.954Z,18.73
2023-04-30T03:38:21.654Z,20.57
2023-04-30T03:43:23.414Z,18.70
2023-04-30T03:48:25.442Z,18.57
2023-04-30T03:53:27.588Z,19.77
2023-04-30T03:58:29.945Z,19.40
2023-04-30T04:03:34.226Z,21.77
2023-04-30T04:08:36.728Z,19.57
2023-04-30T04:13:38.690Z,20.13
2023-04-30T04:18:40.603Z,23.63
2023-04-30T04:23:42.322Z,23.87
2023-04-30T04:28:44.198Z,23.73
2023-04-30T04:33:46.401Z,20.60
2023-04-30T04:38:49.025Z,18.33
2023-04-30T04:43:51.941Z,17.30
2023-04-30T04:48:53.810Z,18.20
2023-04-30T04:53:55.652Z,18.23
2023-04-30T04:58:58.627Z,20.83
2023-04-30T05:04:00.461Z,20.67
2023-04-30T05:09:03.104Z,22.53
2023-04-30T05:14:04.824Z,20.73
2023-04-30T05:19:07.158Z,22.03
2023-04-30T05:24:08.876Z,19.70
2023-04-30T05:29:12.191Z,18.27
2023-04-30T05:34:14.157Z,19.83
2023-04-30T05:39:15.997Z,19.00
2023-04-30T05:44:17.701Z,23.30
2023-04-30T05:49:19.415Z,17.70
2023-04-30T05:54:21.147Z,18.63
2023-04-30T05:59:23.001Z,18.70
2023-04-30T06:04:24.693Z,19.73
2023-04-30T06:09:26.389Z,16.40
2023-04-30T06:14:28.363Z,13.63
2023-04-30T06:19:30.152Z,11.00
2023-04-30T06:24:31.893Z,9.70
2023-04-30T06:29:33.624Z,9.07
2023-04-30T06:34:35.676Z,9.80
2023-04-30T06:39:37.356Z,8.73
2023-04-30T06:44:39.033Z,8.27
2023-04-30T06:49:40.789Z,8.70
2023-04-30T06:54:43.864Z,8.83
2023-04-30T06:59:45.741Z,8.93
2023-04-30T07:04:47.604Z,7.87
2023-04-30T07:09:51.058Z,8.67
2023-04-30T07:14:53.485Z,7.80
2023-04-30T07:19:55.413Z,9.10
2023-04-30T07:24:57.515Z,8.03
2023-04-30T07:29:59.222Z,8.07
2023-04-30T07:35:01.043Z,8.30
2023-04-30T07:40:03.631Z,8.90
2023-04-30T07:45:05.921Z,8.27
2023-04-30T07:50:08.014Z,7.90
2023-04-30T07:55:10.318Z,7.80
2023-04-30T08:00:13.529Z,8.00
2023-04-30T08:05:15.399Z,7.70
2023-04-30T08:10:17.276Z,7.50
2023-04-30T08:15:21.853Z,7.63
2023-04-30T08:20:23.743Z,7.60
2023-04-30T08:25:25.816Z,8.13
2023-04-30T08:30:27.554Z,7.63
2023-04-30T08:35:29.930Z,7.53
2023-04-30T08:40:49.883Z,7.57
2023-04-30T08:45:53.864Z,8.83
2023-04-30T08:50:55.630Z,8.43
2023-04-30T08:55:58.312Z,6.83
2023-04-30T09:01:01.230Z,7.77
2023-04-30T09:06:03.082Z,7.20
2023-04-30T09:11:21.955Z,8.43
2023-04-30T09:16:25.294Z,8.40
2023-04-30T09:21:37.262Z,7.77
2023-04-30T09:26:39.092Z,7.07
2023-04-30T09:31:44.433Z,7.17
2023-04-30T09:36:56.007Z,7.13
2023-04-30T09:42:11.081Z,7.17
2023-04-30T09:47:17.923Z,7.50
2023-04-30T09:52:20.911Z,7.80
2023-04-30T09:57:24.560Z,7.97
2023-04-30T10:02:27.452Z,6.60
2023-04-30T10:07:38.819Z,6.33
2023-04-30T10:12:56.387Z,6.70
2023-04-30T10:18:02.673Z,8.20
2023-04-30T10:23:05.641Z,6.40
2023-04-30T10:28:08.989Z,7.17
2023-04-30T10:33:42.681Z,7.33
2023-04-30T10:38:46.534Z,6.17
2023-04-30T10:43:50.296Z,6.47
2023-04-30T10:48:55.682Z,9.80
2023-04-30T10:53:57.608Z,5.90
2023-04-30T10:59:02.401Z,6.97
2023-04-30T11:04:08.675Z,6.40
2023-04-30T11:09:10.531Z,7.07
2023-04-30T11:14:13.202Z,6.10
2023-04-30T11:19:15.746Z,6.87
2023-04-30T11:24:19.987Z,7.00
2023-04-30T11:29:22.978Z,6.73
2023-04-30T11:34:26.402Z,8.10
2023-04-30T11:39:29.732Z,6.50
2023-04-30T11:44:31.537Z,7.77
2023-04-30T11:49:33.596Z,7.10
2023-04-30T11:54:39.172Z,6.77
2023-04-30T11:59:42.317Z,6.80
2023-04-30T12:04:44.393Z,6.83
2023-04-30T12:09:56.844Z,7.43
2023-04-30T12:14:59.415Z,7.10
2023-04-30T12:20:01.298Z,6.20
2023-04-30T12:25:09.470Z,7.00
2023-04-30T12:30:11.651Z,6.87
2023-04-30T12:35:15.926Z,7.60
2023-04-30T12:40:19.718Z,7.30
2023-04-30T12:45:51.522Z,7.53
2023-04-30T12:51:01.073Z,7.27
2023-04-30T12:56:17.839Z,6.70
2023-04-30T13:01:25.188Z,8.13
2023-04-30T13:06:27.600Z,7.10
2023-04-30T13:11:29.516Z,7.10
2023-04-30T13:16:31.875Z,6.90
2023-04-30T13:21:33.799Z,7.00
2023-04-30T13:26:35.947Z,8.27
2023-04-30T13:31:37.703Z,6.97
2023-04-30T13:36:39.448Z,8.43
2023-04-30T13:41:41.167Z,7.30
2023-04-30T13:46:42.968Z,7.50
2023-04-30T13:51:44.789Z,7.40
2023-04-30T13:56:46.553Z,10.13
2023-04-30T14:01:48.239Z,8.77
2023-04-30T14:06:51.016Z,8.90
2023-04-30T14:11:52.730Z,7.80
2023-04-30T14:16:54.878Z,7.57
2023-04-30T14:21:56.775Z,7.13
2023-04-30T14:27:00.112Z,7.60
2023-04-30T14:32:03.830Z,7.27
2023-04-30T14:37:05.694Z,7.47
2023-04-30T14:42:07.489Z,7.37
2023-04-30T14:47:09.256Z,6.63
2023-04-30T14:52:10.964Z,7.73
2023-04-30T14:57:12.666Z,6.50
2023-04-30T15:02:14.488Z,7.50
2023-04-30T15:07:16.295Z,7.03
2023-04-30T15:12:17.989Z,9.37
2023-04-30T15:17:19.838Z,7.53
2023-04-30T15:22:22.564Z,6.83
2023-04-30T15:27:24.356Z,6.97
2023-04-30T15:32:26.100Z,7.77
2023-04-30T15:37:27.867Z,7.03
2023-04-30T15:42:29.600Z,8.13
2023-04-30T15:47:31.611Z,7.33
2023-04-30T15:52:33.396Z,8.73
2023-04-30T15:57:35.333Z,7.30
2023-04-30T16:02:37.252Z,7.07
2023-04-30T16:07:40.359Z,8.60
2023-04-30T16:12:43.450Z,9.83
2023-04-30T16:17:45.299Z,6.70
2023-04-30T16:22:48.217Z,9.27
2023-04-30T16:27:50.679Z,8.37
2023-04-30T16:32:52.355Z,7.50
2023-04-30T16:37:55.020Z,7.90
2023-04-30T16:42:56.908Z,8.00
2023-04-30T16:47:58.675Z,7.33
2023-04-30T16:53:00.457Z,8.87
2023-04-30T16:58:02.245Z,7.50
2023-04-30T17:03:04.883Z,9.73
2023-04-30T17:08:07.302Z,7.37
2023-04-30T17:13:13.759Z,7.67
2023-04-30T17:18:15.796Z,9.23
2023-04-30T17:23:17.837Z,8.40
2023-04-30T17:28:19.548Z,8.07
2023-04-30T17:33:21.247Z,7.83
2023-04-30T17:38:22.903Z,9.37
2023-04-30T17:43:24.922Z,9.47
2023-04-30T17:48:27.313Z,8.70
2023-04-30T17:53:29.127Z,8.80
2023-04-30T17:58:30.918Z,8.60
2023-04-30T18:03:32.849Z,9.93
2023-04-30T18:08:34.812Z,8.33
2023-04-30T18:13:37.101Z,7.50
2023-04-30T18:18:38.830Z,7.93
2023-04-30T18:23:40.868Z,8.20
2023-04-30T18:28:42.646Z,8.43
2023-04-30T18:33:44.866Z,9.13
2023-04-30T18:38:46.720Z,7.90
2023-04-30T18:43:48.776Z,11.27
2023-04-30T18:48:50.492Z,9.27
2023-04-30T18:53:52.237Z,7.97
2023-04-30T18:58:53.937Z,10.53
2023-04-30T19:03:55.804Z,8.40
2023-04-30T19:08:59.703Z,11.90
2023-04-30T19:14:02.081Z,13.27
2023-04-30T19:19:03.918Z,11.50
2023-04-30T19:24:05.652Z,11.50
2023-04-30T19:29:07.366Z,8.83
2023-04-30T19:34:09.053Z,9.03
2023-04-30T19:39:11.871Z,9.97
2023-04-30T19:44:13.933Z,9.93
2023-04-30T19:49:15.998Z,15.03
2023-04-30T19:54:17.939Z,10.03
2023-04-30T19:59:19.651Z,9.07
2023-04-30T20:04:21.604Z,14.00
2023-04-30T20:09:23.300Z,11.77
2023-04-30T20:14:24.996Z,36.07
2023-04-30T20:19:26.771Z,14.03
2023-04-30T20:24:28.494Z,11.10
2023-04-30T20:29:30.230Z,11.97
2023-04-30T20:34:32.697Z,12.80
2023-04-30T20:39:34.404Z,10.77
2023-04-30T20:44:36.091Z,10.57
2023-04-30T20:49:37.812Z,9.80
2023-04-30T20:54:39.856Z,9.33
2023-04-30T20:59:41.613Z,9.17
2023-04-30T21:04:43.471Z,12.53
2023-04-30T21:09:45.167Z,12.27
2023-04-30T21:14:46.858Z,10.83
2023-04-30T21:19:48.666Z,10.93
2023-04-30T21:24:55.180Z,11.77
2023-04-30T21:29:57.323Z,11.07
2023-04-30T21:34:59.167Z,13.57
2023-04-30T21:40:00.938Z,13.73
2023-04-30T21:45:02.837Z,14.93
2023-04-30T21:50:05.738Z,11.97
2023-04-30T21:55:08.342Z,12.20
2023-04-30T22:00:14.467Z,9.27
2023-04-30T22:05:17.091Z,11.67
2023-04-30T22:10:19.210Z,11.67
2023-04-30T22:15:21.435Z,9.70
2023-04-30T22:20:23.101Z,11.53
2023-04-30T22:25:24.864Z,12.43
2023-04-30T22:30:26.766Z,12.97
2023-04-30T22:35:29.172Z,10.20
2023-04-30T22:40:37.828Z,13.30
2023-04-30T22:45:40.542Z,10.03
2023-04-30T22:50:42.560Z,10.93
2023-04-30T22:55:44.575Z,10.43
2023-04-30T23:00:46.351Z,12.00
2023-04-30T23:05:51.534Z,13.73
2023-04-30T23:10:55.561Z,11.13
2023-04-30T23:16:01.438Z,12.57
2023-04-30T23:21:03.691Z,12.63
2023-04-30T23:26:05.453Z,10.47
2023-04-30T23:31:07.217Z,10.83
2023-04-30T23:36:08.976Z,11.43
2023-04-30T23:41:10.782Z,11.00
2023-04-30T23:46:12.503Z,10.40
2023-04-30T23:51:14.242Z,8.30
2023-04-30T23:56:17.145Z,14.27
